createdAt,value
2022-12-14T00:01:49.254Z,-8.50
2022-12-14T00:04:17.442Z,-9.10
2022-12-14T00:06:45.061Z,-9.10
2022-12-14T00:09:12.447Z,-8.40
2022-12-14T00:11:39.869Z,-9.10
2022-12-14T00:14:07.763Z,-9.10
2022-12-14T00:16:36.395Z,-9.10
2022-12-14T00:19:05.547Z,-9.00
2022-12-14T00:21:33.125Z,-8.80
2022-12-14T00:24:00.734Z,-9.10
2022-12-14T00:26:32.328Z,-8.80
2022-12-14T00:29:01.720Z,-8.80
2022-12-14T00:31:31.331Z,-9.00
2022-12-14T00:33:59.620Z,-8.90
2022-12-14T00:36:27.225Z,-8.80
2022-12-14T00:38:54.655Z,-8.70
2022-12-14T00:41:22.101Z,-8.70
2022-12-14T00:43:49.716Z,-8.30
2022-12-14T00:46:18.186Z,-9.30
2022-12-14T00:48:46.420Z,-9.00
2022-12-14T00:51:15.234Z,-8.90
2022-12-14T00:53:45.030Z,-8.90
2022-12-14T00:56:12.734Z,-9.20
2022-12-14T00:58:40.308Z,-9.30
2022-12-14T01:01:14.940Z,-9.30
2022-12-14T01:03:42.536Z,-9.30
2022-12-14T01:06:21.825Z,-9.60
2022-12-14T01:08:49.900Z,-9.20
2022-12-14T01:11:17.452Z,-9.40
2022-12-14T01:13:49.209Z,-9.50
2022-12-14T01:16:17.420Z,-9.60
2022-12-14T01:18:47.701Z,-8.90
2022-12-14T01:21:20.003Z,-9.20
2022-12-14T01:23:49.174Z,-9.80
2022-12-14T01:26:17.370Z,-9.10
2022-12-14T01:28:45.994Z,-9.80
2022-12-14T01:31:17.174Z,-9.00
2022-12-14T01:33:45.905Z,-9.30
2022-12-14T01:36:16.157Z,-9.50
2022-12-14T01:38:46.146Z,-9.20
2022-12-14T01:41:35.776Z,-9.50
2022-12-14T01:44:09.233Z,-9.40
2022-12-14T01:46:44.181Z,-9.50
2022-12-14T01:49:14.645Z,-9.00
2022-12-14T01:51:46.883Z,-9.00
2022-12-14T01:54:15.203Z,-8.80
2022-12-14T01:56:45.238Z,-8.20
2022-12-14T01:59:22.109Z,-9.20
2022-12-14T02:01:50.358Z,-8.80
2022-12-14T02:04:19.204Z,-8.90
2022-12-14T02:06:49.412Z,-8.90
2022-12-14T02:09:21.689Z,-8.90
2022-12-14T02:12:04.700Z,-7.80
2022-12-14T02:14:33.901Z,-8.80
2022-12-14T02:17:02.117Z,-8.50
2022-12-14T02:19:29.643Z,-8.80
2022-12-14T02:22:03.279Z,-8.50
2022-12-14T02:24:47.636Z,-8.40
2022-12-14T02:27:41.371Z,-8.40
2022-12-14T02:30:12.483Z,-8.20
2022-12-14T02:33:04.325Z,-8.00
2022-12-14T02:35:43.371Z,-7.80
2022-12-14T02:38:25.879Z,-8.00
2022-12-14T02:41:14.330Z,-7.80
2022-12-14T02:44:01.804Z,-7.70
2022-12-14T02:46:36.638Z,-7.70
2022-12-14T02:49:13.440Z,-7.60
2022-12-14T02:51:55.961Z,-7.50
2022-12-14T02:54:29.388Z,-7.50
2022-12-14T02:57:08.553Z,-7.60
2022-12-14T02:59:36.703Z,-7.00
2022-12-14T03:02:06.165Z,-7.50
2022-12-14T03:04:45.830Z,-7.30
2022-12-14T03:07:38.356Z,-7.30
2022-12-14T03:10:27.753Z,-7.00
2022-12-14T03:13:01.996Z,-7.10
2022-12-14T03:15:30.265Z,-7.90
2022-12-14T03:18:02.462Z,-7.20
2022-12-14T03:20:32.650Z,-7.20
2022-12-14T03:23:09.066Z,-7.00
2022-12-14T03:25:59.326Z,-7.00
2022-12-14T03:28:48.323Z,-6.80
2022-12-14T03:31:22.551Z,-6.30
2022-12-14T03:33:55.033Z,-6.80
2022-12-14T03:36:47.713Z,-6.80
2022-12-14T03:39:25.928Z,-6.50
2022-12-14T03:42:11.920Z,-6.50
2022-12-14T03:44:50.228Z,-6.40
2022-12-14T03:47:23.589Z,-6.50
2022-12-14T03:50:09.122Z,-6.30
2022-12-14T03:52:51.531Z,-6.40
2022-12-14T03:55:28.033Z,-6.20
2022-12-14T03:58:19.593Z,-6.10
2022-12-14T04:01:04.312Z,-6.00
2022-12-14T04:03:50.102Z,-6.10
2022-12-14T04:06:22.976Z,-5.40
2022-12-14T04:09:08.582Z,-5.90
2022-12-14T04:12:00.809Z,-5.90
2022-12-14T04:14:52.528Z,-6.30
2022-12-14T04:17:46.133Z,-6.20
2022-12-14T04:20:36.552Z,-5.80
2022-12-14T04:23:11.073Z,-6.00
2022-12-14T04:26:02.840Z,-6.10
2022-12-14T04:28:56.806Z,-6.00
2022-12-14T04:31:28.202Z,-6.00
2022-12-14T04:34:00.076Z,-5.60
2022-12-14T04:36:30.420Z,-6.10
2022-12-14T04:39:04.717Z,-6.00
2022-12-14T04:41:36.712Z,-6.00
2022-12-14T04:44:11.168Z,-6.00
2022-12-14T04:46:41.165Z,-6.50
2022-12-14T04:49:23.402Z,-6.00
2022-12-14T04:51:50.668Z,-6.10
2022-12-14T04:54:47.829Z,-6.30
2022-12-14T04:57:40.296Z,-6.30
2022-12-14T05:00:09.207Z,-6.00
2022-12-14T05:03:06.007Z,-5.00
2022-12-14T05:05:41.449Z,-5.90
2022-12-14T05:08:31.868Z,-5.70
2022-12-14T05:11:49.724Z,-5.80
2022-12-14T05:14:03.038Z,-6.10
2022-12-14T05:16:30.451Z,-5.70
2022-12-14T05:18:57.810Z,-6.30
2022-12-14T05:21:43.992Z,-5.60
2022-12-14T05:24:11.441Z,-6.10
2022-12-14T05:26:38.901Z,-6.00
2022-12-14T05:29:06.439Z,-6.30
2022-12-14T05:31:34.177Z,-6.40
2022-12-14T05:34:01.655Z,-6.30
2022-12-14T05:36:29.121Z,-6.50
2022-12-14T05:38:56.810Z,-7.10
2022-12-14T05:41:24.134Z,-6.70
2022-12-14T05:43:51.517Z,-5.70
2022-12-14T05:46:18.914Z,-6.70
2022-12-14T05:48:49.389Z,-6.30
2022-12-14T05:51:17.298Z,-6.10
2022-12-14T05:53:45.044Z,-6.70
2022-12-14T05:56:13.432Z,-6.20
2022-12-14T05:58:41.071Z,-6.20
2022-12-14T06:01:17.008Z,-5.90
2022-12-14T06:03:46.655Z,-6.50
2022-12-14T06:06:14.483Z,-6.40
2022-12-14T06:08:44.663Z,-4.50
2022-12-14T06:11:21.539Z,-6.30
2022-12-14T06:13:49.947Z,-5.70
2022-12-14T06:16:23.073Z,-6.00
2022-12-14T06:18:55.169Z,-6.40
2022-12-14T06:21:26.181Z,-5.60
2022-12-14T06:23:55.795Z,-5.80
2022-12-14T06:26:23.836Z,-5.90
2022-12-14T06:28:51.204Z,-5.50
2022-12-14T06:31:21.804Z,-6.20
2022-12-14T06:33:49.517Z,-5.90
2022-12-14T06:36:23.908Z,-5.90
2022-12-14T06:38:52.121Z,-6.20
2022-12-14T06:41:20.579Z,-5.90
2022-12-14T06:43:49.224Z,-5.90
2022-12-14T06:46:20.813Z,-6.60
2022-12-14T06:48:53.626Z,-6.50
2022-12-14T06:51:22.204Z,-5.80
2022-12-14T06:53:57.645Z,-6.40
2022-12-14T06:56:27.118Z,-5.50
2022-12-14T06:58:55.853Z,-5.80
2022-12-14T07:01:25.780Z,-6.80
2022-12-14T07:03:56.173Z,-6.40
2022-12-14T07:06:25.028Z,-6.40
2022-12-14T07:08:57.644Z,-6.50
2022-12-14T07:11:27.168Z,-6.70
2022-12-14T07:13:55.124Z,-5.50
2022-12-14T07:16:27.282Z,-7.00
2022-12-14T07:18:55.383Z,-6.10
2022-12-14T07:21:23.792Z,-6.30
2022-12-14T07:23:52.754Z,-6.80
2022-12-14T07:26:28.077Z,-8.00
2022-12-14T07:28:56.173Z,-6.40
2022-12-14T07:31:25.617Z,-7.00
2022-12-14T07:33:58.028Z,-6.20
2022-12-14T07:36:27.001Z,-6.50
2022-12-14T07:38:56.133Z,-6.40
2022-12-14T07:41:26.697Z,-7.10
2022-12-14T07:43:55.726Z,-6.50
2022-12-14T07:46:26.786Z,-6.50
2022-12-14T07:48:56.517Z,-6.60
2022-12-14T07:51:30.207Z,-6.30
2022-12-14T07:53:59.221Z,-6.20
2022-12-14T07:56:30.863Z,-5.40
2022-12-14T07:58:59.579Z,-6.40
2022-12-14T08:01:31.235Z,-7.20
2022-12-14T08:04:01.322Z,-6.50
2022-12-14T08:06:30.187Z,-6.60
2022-12-14T08:08:58.303Z,-5.60
2022-12-14T08:11:26.484Z,-6.40
2022-12-14T08:13:55.271Z,-6.50
2022-12-14T08:16:23.734Z,-5.70
2022-12-14T08:18:53.954Z,-4.50
2022-12-14T08:21:23.028Z,-5.90
2022-12-14T08:23:52.485Z,-6.80
2022-12-14T08:26:20.919Z,-6.70
2022-12-14T08:28:48.951Z,-7.70
2022-12-14T08:35:23.922Z,-6.30
2022-12-14T08:37:53.200Z,-6.30
2022-12-14T08:40:20.639Z,-5.30
2022-12-14T08:42:51.288Z,-5.80
2022-12-14T08:45:19.350Z,-5.40
2022-12-14T08:47:47.803Z,-6.10
2022-12-14T08:50:22.033Z,-4.90
2022-12-14T08:52:49.623Z,-5.60
2022-12-14T08:55:18.993Z,-5.20
2022-12-14T08:57:51.734Z,-5.10
2022-12-14T09:00:19.957Z,-5.10
2022-12-14T09:02:54.286Z,-5.10
2022-12-14T09:05:22.352Z,-4.20
2022-12-14T09:07:50.419Z,-3.60
2022-12-14T09:10:18.019Z,-4.00
2022-12-14T09:12:45.670Z,-3.60
2022-12-14T09:15:13.197Z,-4.00
2022-12-14T09:17:42.424Z,-3.40
2022-12-14T09:20:13.034Z,-2.60
2022-12-14T09:22:40.815Z,-2.80
2022-12-14T09:25:11.562Z,-2.70
2022-12-14T09:27:42.102Z,-2.80
2022-12-14T09:30:10.638Z,-3.20
2022-12-14T09:32:40.282Z,-3.40
2022-12-14T09:35:09.709Z,-4.40
2022-12-14T09:37:41.872Z,-4.60
2022-12-14T09:40:15.263Z,-4.10
2022-12-14T09:42:58.234Z,-4.00
2022-12-14T09:45:33.215Z,-5.30
2022-12-14T09:48:13.343Z,-4.70
2022-12-14T09:50:41.315Z,-4.60
2022-12-14T09:53:14.401Z,-5.10
2022-12-14T09:55:50.054Z,-5.40
2022-12-14T09:58:21.934Z,-4.90
2022-12-14T10:01:38.356Z,-5.50
2022-12-14T10:04:13.172Z,-5.10
2022-12-14T10:06:56.922Z,-5.50
2022-12-14T10:09:32.943Z,-5.50
2022-12-14T10:12:33.941Z,-3.20
2022-12-14T10:15:20.528Z,-5.70
2022-12-14T10:18:34.003Z,-5.30
2022-12-14T10:21:25.602Z,-5.20
2022-12-14T10:24:00.676Z,-5.20
2022-12-14T10:26:36.009Z,-5.60
2022-12-14T10:29:12.020Z,-5.90
2022-12-14T10:31:55.942Z,-5.50
2022-12-14T10:34:28.871Z,-5.90
2022-12-14T10:37:23.985Z,-5.40
2022-12-14T10:40:33.656Z,-5.40
2022-12-14T10:44:01.798Z,-4.80
2022-12-14T10:46:45.362Z,-4.30
2022-12-14T10:49:59.051Z,-5.80
2022-12-14T10:52:47.442Z,-5.60
2022-12-14T10:55:21.250Z,-4.80
2022-12-14T10:57:49.564Z,-5.70
2022-12-14T11:00:25.957Z,-5.00
2022-12-14T11:02:57.501Z,-4.90
2022-12-14T11:05:38.432Z,-5.30
2022-12-14T11:08:07.658Z,-5.20
2022-12-14T11:10:43.614Z,-5.20
2022-12-14T11:13:14.436Z,-4.90
2022-12-14T11:15:47.799Z,-5.10
2022-12-14T11:18:18.237Z,-5.30
2022-12-14T11:24:03.248Z,-4.80
2022-12-14T11:26:44.962Z,-4.60
2022-12-14T11:29:39.812Z,-4.90
2022-12-14T11:32:26.105Z,-5.20
2022-12-14T11:35:00.470Z,-5.40
2022-12-14T11:37:39.071Z,-5.80
2022-12-14T11:40:18.531Z,-5.60
2022-12-14T11:42:58.088Z,-5.50
2022-12-14T11:45:26.988Z,-5.50
2022-12-14T11:48:18.619Z,-5.70
2022-12-14T11:50:49.548Z,-5.90
2022-12-14T11:53:22.649Z,-3.60
2022-12-14T11:56:04.953Z,-5.50
2022-12-14T11:59:05.805Z,-5.70
2022-12-14T12:01:43.015Z,-5.10
2022-12-14T12:04:21.026Z,-4.90
2022-12-14T12:06:49.402Z,-4.90
2022-12-14T12:09:30.730Z,-4.30
2022-12-14T12:11:59.186Z,-5.00
2022-12-14T12:14:35.169Z,-5.20
2022-12-14T12:17:02.622Z,-5.40
2022-12-14T12:19:36.852Z,-5.80
2022-12-14T12:22:09.758Z,-5.60
2022-12-14T12:25:08.601Z,-5.70
2022-12-14T12:27:34.589Z,-5.10
2022-12-14T12:30:24.722Z,-5.10
2022-12-14T12:32:53.827Z,-4.20
2022-12-14T12:35:36.526Z,-5.40
2022-12-14T12:38:50.350Z,-5.40
2022-12-14T12:41:24.494Z,-5.40
2022-12-14T12:44:17.979Z,-4.20
2022-12-14T12:47:25.252Z,-4.90
2022-12-14T12:49:56.459Z,-5.70
2022-12-14T12:52:28.877Z,-5.10
2022-12-14T12:55:02.311Z,-3.70
2022-12-14T12:57:40.599Z,-5.20
2022-12-14T13:00:15.445Z,-5.20
2022-12-14T13:02:54.926Z,-4.90
2022-12-14T13:08:20.420Z,-5.20
2022-12-14T13:13:48.023Z,-5.20
2022-12-14T13:16:27.793Z,-5.40
2022-12-14T13:19:25.297Z,-5.20
2022-12-14T13:21:52.487Z,-4.90
2022-12-14T13:24:22.134Z,-4.50
2022-12-14T13:27:01.107Z,-5.70
2022-12-14T13:30:01.137Z,-6.00
2022-12-14T13:32:43.709Z,-5.20
2022-12-14T13:35:37.917Z,-4.50
2022-12-14T13:38:33.759Z,-4.10
2022-12-14T13:41:17.250Z,-4.70
2022-12-14T13:44:43.546Z,-5.00
2022-12-14T13:47:15.954Z,-4.70
2022-12-14T13:50:26.897Z,-5.40
2022-12-14T13:52:46.928Z,-4.30
2022-12-14T13:55:33.333Z,-4.90
2022-12-14T13:58:22.105Z,-4.70
2022-12-14T14:00:53.421Z,-4.70
2022-12-14T14:03:36.314Z,-5.30
2022-12-14T14:06:21.835Z,-4.70
2022-12-14T14:08:53.178Z,-4.70
2022-12-14T14:11:39.590Z,-3.90
2022-12-14T14:14:43.208Z,-4.90
2022-12-14T14:17:25.855Z,-4.70
2022-12-14T14:19:56.010Z,-5.00
2022-12-14T14:22:28.823Z,-4.70
2022-12-14T14:25:17.900Z,-4.70
2022-12-14T14:27:50.311Z,-4.50
2022-12-14T14:30:27.973Z,-4.90
2022-12-14T14:33:07.613Z,-3.80
2022-12-14T14:35:44.411Z,-4.60
2022-12-14T14:38:32.588Z,-4.30
2022-12-14T14:41:17.483Z,-4.70
2022-12-14T14:43:59.904Z,-4.10
2022-12-14T14:46:44.091Z,-4.40
2022-12-14T14:49:29.373Z,-4.30
2022-12-14T14:51:57.279Z,-3.90
2022-12-14T14:58:10.128Z,-3.70
2022-12-14T15:00:49.927Z,-4.40
2022-12-14T15:03:19.972Z,-4.40
2022-12-14T15:05:49.763Z,-4.40
2022-12-14T15:08:39.610Z,-4.40
2022-12-14T15:11:22.679Z,-4.30
2022-12-14T15:14:14.052Z,-4.30
2022-12-14T15:16:45.374Z,-4.20
2022-12-14T15:19:29.524Z,-4.30
2022-12-14T15:22:00.502Z,-4.30
2022-12-14T15:24:27.961Z,-4.50
2022-12-14T15:26:55.749Z,-2.70
2022-12-14T15:29:28.312Z,-5.50
2022-12-14T15:31:59.813Z,-4.50
2022-12-14T15:34:27.699Z,-4.60
2022-12-14T15:36:55.618Z,-4.30
2022-12-14T15:39:38.450Z,-4.40
2022-12-14T15:42:10.294Z,-3.90
2022-12-14T15:44:40.254Z,-3.60
2022-12-14T15:47:22.256Z,-4.90
2022-12-14T15:49:54.577Z,-4.50
2022-12-14T15:52:31.101Z,-4.40
2022-12-14T15:54:59.699Z,-4.30
2022-12-14T15:57:27.167Z,-4.20
2022-12-14T15:59:57.555Z,-4.10
2022-12-14T16:02:32.207Z,-4.70
2022-12-14T16:05:02.903Z,-3.60
2022-12-14T16:07:44.991Z,-3.90
2022-12-14T16:10:34.467Z,-3.10
2022-12-14T16:13:27.507Z,-3.40
2022-12-14T16:15:57.581Z,-3.50
2022-12-14T16:18:25.393Z,-3.80
2022-12-14T16:20:59.781Z,-3.60
2022-12-14T16:23:39.248Z,-3.40
2022-12-14T16:26:22.062Z,-3.20
2022-12-14T16:28:49.860Z,-0.80
2022-12-14T16:31:22.441Z,-3.50
2022-12-14T16:34:09.079Z,-3.90
2022-12-14T16:36:38.116Z,-3.20
2022-12-14T16:39:14.592Z,-3.80
2022-12-14T16:42:06.948Z,-1.80
2022-12-14T16:44:37.837Z,-3.20
2022-12-14T16:47:16.856Z,-2.70
2022-12-14T16:50:47.712Z,-3.50
2022-12-14T16:53:30.019Z,-2.80
2022-12-14T16:56:03.213Z,-3.30
2022-12-14T16:58:31.069Z,-3.30
2022-12-14T17:01:03.297Z,-3.40
2022-12-14T17:03:32.119Z,-3.40
2022-12-14T17:06:02.664Z,-3.40
2022-12-14T17:08:31.135Z,-3.80
2022-12-14T17:10:59.961Z,-3.70
2022-12-14T17:13:27.748Z,-3.10
2022-12-14T17:16:01.120Z,-2.60
2022-12-14T17:18:32.995Z,-3.70
2022-12-14T17:21:01.600Z,-3.60
2022-12-14T17:23:29.430Z,-3.50
2022-12-14T17:25:57.921Z,-4.30
2022-12-14T17:28:29.261Z,-3.10
2022-12-14T17:30:59.663Z,-2.90
2022-12-14T17:33:28.998Z,-3.30
2022-12-14T17:35:56.899Z,-3.00
2022-12-14T17:38:24.633Z,-3.90
2022-12-14T17:40:53.831Z,-2.90
2022-12-14T17:43:25.568Z,-2.70
2022-12-14T17:45:53.228Z,-3.10
2022-12-14T17:48:21.557Z,-2.60
2022-12-14T17:50:50.658Z,-2.90
2022-12-14T17:53:22.537Z,-2.20
2022-12-14T17:55:49.895Z,-2.10
2022-12-14T17:58:17.310Z,-2.10
2022-12-14T18:01:00.174Z,-1.70
2022-12-14T18:03:32.585Z,-1.40
2022-12-14T18:06:00.463Z,-1.10
2022-12-14T18:08:28.002Z,0.40
2022-12-14T18:11:02.764Z,-0.80
2022-12-14T18:13:33.389Z,-0.50
2022-12-14T18:16:01.348Z,0.40
2022-12-14T18:18:29.893Z,0.60
2022-12-14T18:21:02.851Z,1.30
2022-12-14T18:23:32.021Z,0.10
2022-12-14T18:26:01.891Z,0.20
2022-12-14T18:28:29.238Z,0.40
2022-12-14T18:31:04.403Z,2.20
2022-12-14T18:33:34.738Z,1.30
2022-12-14T18:36:02.274Z,0.70
2022-12-14T18:38:29.753Z,0.30
2022-12-14T18:40:59.011Z,0.90
2022-12-14T18:43:28.994Z,2.70
2022-12-14T18:45:56.943Z,2.70
2022-12-14T18:48:25.201Z,0.80
2022-12-14T18:50:54.684Z,2.60
2022-12-14T18:53:23.684Z,2.50
2022-12-14T18:55:51.808Z,1.00
2022-12-14T18:58:27.072Z,0.40
2022-12-14T19:00:57.717Z,1.10
2022-12-14T19:03:26.884Z,1.30
2022-12-14T19:06:34.821Z,1.90
2022-12-14T19:08:51.846Z,2.90
2022-12-14T19:11:39.017Z,1.10
2022-12-14T19:14:06.962Z,1.60
2022-12-14T19:16:34.864Z,1.30
2022-12-14T19:19:02.653Z,1.10
2022-12-14T19:21:31.354Z,2.60
2022-12-14T19:24:00.060Z,2.00
2022-12-14T19:26:28.779Z,2.00
2022-12-14T19:28:56.176Z,2.40
2022-12-14T19:31:23.913Z,2.10
2022-12-14T19:33:51.464Z,2.20
2022-12-14T19:36:18.896Z,1.60
2022-12-14T19:38:49.322Z,1.10
2022-12-14T19:41:20.460Z,1.10
2022-12-14T19:43:48.264Z,3.50
2022-12-14T19:46:16.507Z,2.40
2022-12-14T19:48:46.968Z,2.00
2022-12-14T19:51:15.486Z,2.90
2022-12-14T19:53:47.093Z,2.10
2022-12-14T19:56:17.048Z,2.70
2022-12-14T19:58:46.955Z,1.90
2022-12-14T20:01:16.724Z,2.20
2022-12-14T20:03:44.603Z,2.50
2022-12-14T20:06:12.146Z,2.40
2022-12-14T20:08:39.499Z,2.70
2022-12-14T20:11:09.661Z,1.20
2022-12-14T20:13:37.347Z,3.00
2022-12-14T20:16:05.083Z,1.40
2022-12-14T20:18:32.653Z,2.10
2022-12-14T20:21:06.277Z,1.60
2022-12-14T20:23:37.956Z,0.60
2022-12-14T20:26:08.747Z,1.90
2022-12-14T20:28:36.386Z,2.60
2022-12-14T20:31:09.141Z,-0.80
2022-12-14T20:33:37.933Z,-0.90
2022-12-14T20:36:06.345Z,-1.10
2022-12-14T20:38:33.993Z,-0.90
2022-12-14T20:41:10.290Z,0.40
2022-12-14T20:43:40.461Z,-1.70
2022-12-14T20:46:23.149Z,-1.30
2022-12-14T20:48:50.636Z,-1.60
2022-12-14T20:51:18.001Z,-1.70
2022-12-14T20:53:45.581Z,-1.70
2022-12-14T20:56:17.021Z,0.40
2022-12-14T20:58:48.382Z,-1.80
2022-12-14T21:01:20.652Z,-2.10
2022-12-14T21:03:50.129Z,-1.80
2022-12-14T21:06:20.363Z,-0.80
2022-12-14T21:09:10.308Z,-2.20
2022-12-14T21:12:05.564Z,-1.90
2022-12-14T21:14:35.201Z,-2.30
2022-12-14T21:17:04.098Z,-2.30
2022-12-14T21:19:32.820Z,-2.50
2022-12-14T21:22:00.309Z,-2.60
2022-12-14T21:27:22.065Z,-2.90
2022-12-14T21:29:50.195Z,-2.90
2022-12-14T21:32:18.815Z,-2.90
2022-12-14T21:34:47.240Z,-3.00
2022-12-14T21:37:15.584Z,-2.60
2022-12-14T21:39:46.327Z,-3.30
2022-12-14T21:42:20.780Z,-3.30
2022-12-14T21:44:50.383Z,-3.10
2022-12-14T21:47:21.202Z,-3.50
2022-12-14T21:49:49.407Z,-3.30
2022-12-14T21:52:19.957Z,-3.00
2022-12-14T21:54:47.308Z,-3.30
2022-12-14T21:57:40.495Z,-3.40
2022-12-14T22:00:09.353Z,-3.60
2022-12-14T22:02:36.875Z,-3.80
2022-12-14T22:05:04.777Z,-3.60
2022-12-14T22:07:34.272Z,-3.20
2022-12-14T22:10:03.869Z,-3.70
2022-12-14T22:12:31.299Z,-3.40
2022-12-14T22:14:58.622Z,-3.60
2022-12-14T22:17:26.068Z,-3.70
2022-12-14T22:19:55.263Z,-3.70
2022-12-14T22:22:23.356Z,-3.80
2022-12-14T22:24:51.483Z,-3.50
2022-12-14T22:27:20.044Z,-3.60
2022-12-14T22:29:47.535Z,-3.40
2022-12-14T22:32:15.601Z,-3.60
2022-12-14T22:34:43.364Z,-1.30
2022-12-14T22:37:14.037Z,-3.60
2022-12-14T22:39:41.465Z,-4.40
2022-12-14T22:42:08.890Z,-3.60
2022-12-14T22:44:36.517Z,-3.70
2022-12-14T22:47:03.979Z,-3.90
2022-12-14T22:49:31.431Z,-3.20
2022-12-14T22:51:58.895Z,-3.90
2022-12-14T22:54:27.692Z,-3.90
2022-12-14T22:57:06.936Z,-4.30
2022-12-14T22:59:45.956Z,-2.40
2022-12-14T23:02:13.747Z,-4.20
2022-12-14T23:04:41.513Z,-4.50
2022-12-14T23:07:09.161Z,-5.00
2022-12-14T23:09:55.129Z,-4.20
2022-12-14T23:12:41.635Z,-4.30
2022-12-14T23:15:28.292Z,-3.70
2022-12-14T23:18:23.851Z,-4.40
2022-12-14T23:21:10.181Z,-4.60
2022-12-14T23:23:58.248Z,-4.90
2022-12-14T23:26:44.436Z,-5.50
2022-12-14T23:29:30.828Z,-4.70
2022-12-14T23:32:17.577Z,-4.80
2022-12-14T23:35:03.861Z,-5.30
2022-12-14T23:37:50.168Z,-4.40
2022-12-14T23:40:36.489Z,-5.30
2022-12-14T23:43:34.278Z,-4.30
2022-12-14T23:46:24.955Z,-4.50
2022-12-14T23:49:15.589Z,-4.60
2022-12-14T23:52:02.691Z,-3.00
2022-12-14T23:54:49.101Z,-4.20
2022-12-14T23:57:38.169Z,-4.60
